Nearby METAR Reports

 

CYYJ - Victoria Intl Ar, British Columbia, Canada
Distance from station: N 6km
Updated: 11/08/2022 17:00
Clear
Clear
 Wind from SE
Wind: SE 11 km/h
Temperature: 24°C
Dew Point: 13°C
Humidity: 50%
Barometer: 1016.6 hPa
Clouds: Clear
Visibility: 48 km
2022/08/12 00:00 CYYJ 120000Z 14006KT 30SM SKC 24/13 A3002 RMK SLP167 DENSITY ALT 1100FT
CWKH - Malahat (autob), British Columbia, Canada
Distance from station: WSW 10km
Updated: 11/08/2022 16:00

 
Temperature: 23°C
Dew Point: 16°C
Humidity: 65%
2022/08/11 23:00 CWKH 112300Z AUTO 23/16 RMK AO1 1010 SLP158 T02290162 50004
 
CWPF - Esquimalt Metoc, British Columbia, Canada
Distance from station: S 18km
Updated: 11/08/2022 16:45

 Wind from SW
Wind: SW 24 km/h
Temperature: 20°C
Dew Point: 14°C
Humidity: 69%
2022/08/11 23:45 CWPF 112345Z AUTO 22013KT 20/14 RMK AO1 PK WND 24017/2326 SLP163 T02000138 53002
CWYJ - Victoria Univ, British Columbia, Canada
Distance from station: SSE 18km
Updated: 11/08/2022 16:00

 Wind from SSW
Wind: SSW 9 km/h
Temperature: 22°C
Dew Point: 14°C
Humidity: 61%
2022/08/11 23:00 CWYJ 112300Z AUTO 21005KT 22/14 RMK AO1 SLP167 T02220144 50006
 
CYWH - Victoria Harbour, British Columbia, Canada
Distance from station: S 20km
Updated: 11/08/2022 17:00
Few Clouds
Few Clouds
 Wind from varies
Wind: varies 4 km/h
Temperature: 20°C
Dew Point: 12°C
Humidity: 60%
Barometer: 1016.9 hPa
Clouds: Few Clouds
Visibility: 24 km
Cloud details: Few Clouds 914 m
2022/08/12 00:00 CYWH 120000Z VRB02KT 15SM FEW030 20/12 A3003 RMK CU1 CU TR SLP172 DENSITY ALT 500FT
CWLM - Victoria (autob), British Columbia, Canada
Distance from station: SSE 21km
Updated: 11/08/2022 16:00

 Wind from SSW
Wind: SSW 30 km/h
Temperature: 16°C
Dew Point: 13°C
Humidity: 83%
2022/08/11 23:00 CWLM 112300Z AUTO 21016KT 16/13 RMK AO1 PK WND 22020/2207 SLP166 T01590126 51005
 
KFHR - Friday Harbor, Washington, USA
Distance from station: ESE 30km
Updated: 11/08/2022 16:53
Clear
Clear
 Wind from SW
Wind: SW 11 km/h
Temperature: 23°C
Dew Point: 13°C
Humidity: 53%
Barometer: 1017.3 hPa
Clouds: Clear
Visibility: 16 km
2022/08/11 23:53 KFHR 112353Z AUTO 23006KT 10SM CLR 23/13 A3004 RMK AO2 SLP171 T02330133 10244 20189 58017
CWQK - Race Rocks Autob, British Columbia, Canada
Distance from station: SSW 34km
Updated: 11/08/2022 17:00

 Wind from W
Wind: W 39 km/h
Temperature: 17°C
2022/08/12 00:00 CWQK 120000Z AUTO 28021KT 17/ RMK AO1 PK WND 28021/2356 SLP169 T0167 58019
 
CWEZ - Saturna Isl (map, British Columbia, Canada
Distance from station: NE 35km
Updated: 11/08/2022 17:00

 Wind from SW
Wind: SW 4 km/h
Temperature: 22°C
Dew Point: 13°C
Humidity: 57%
2022/08/12 00:00 CWEZ 120000Z AUTO 23002KT 22/13 RMK AO1 8016 SLP167 T02200127 50002
KORS - Eastsound/Orcas, Washington, USA
Distance from station: ENE 39km
Updated: 11/08/2022 16:55
Clear
Clear
 Wind from N
Wind: N 7 km/h
Temperature: 22°C
Dew Point: -32°C
Humidity: 1%
Barometer: 1016.6 hPa
Clouds: Clear
Visibility: 16 km
2022/08/11 23:55 KORS 112355Z AUTO 35004KT 10SM CLR 22/M32 A3002 RMK AO2
 
CWSP - Sheringham Autob, British Columbia, Canada
Distance from station: WSW 43km
Updated: 11/08/2022 16:00

 Wind from WNW
Wind: WNW 37 km/h
Temperature: 19°C
Dew Point: 15°C
Humidity: 78%
2022/08/11 23:00 CWSP 112300Z AUTO 29020KT 19/15 RMK AO1 1016 PK WND 29024/2209 SLP177 T01850147 50002